JAL303 RJAA-ROAH
Flight info
| Callsign | JAL303 |
|---|---|
| Flight time | 2h 32m |
| Altitude | 40000 |
| Route | SAMUS Y84 HCE Y86 YULIA Y293 TONAR Y525 IHEYA |
| Aircraft | A359/H-SDE2E3GHIJ3J4J5LM1ORWXY/LB1D1 |
Departure
| Time | 2026-05-08 21:45 |
|---|---|
| Airport | Narita International Airport (RJAA) |
Arrival
| Time | 2026-05-09 00:17 |
|---|---|
| Airport | Naha International Airport (ROAH) |
| Time | Latitude | Longitude | Altitude | Speed | Heading |
|---|---|---|---|---|---|
| 2026-05-08 21:20 | 35.76536 | 140.38225 | 150 ft | 0 kts | 168° |
| 2026-05-08 21:37 | 35.76538 | 140.38225 | 150 ft | 3 kts | 168° |
| 2026-05-08 21:38 | 35.76556 | 140.38220 | 150 ft | 3 kts | 168° |
| 2026-05-08 21:38 | 35.76574 | 140.38215 | 150 ft | 3 kts | 168° |
| 2026-05-08 21:38 | 35.76592 | 140.38210 | 150 ft | 3 kts | 168° |
| 2026-05-08 21:38 | 35.76611 | 140.38209 | 150 ft | 3 kts | 205° |
| 2026-05-08 21:39 | 35.76627 | 140.38223 | 150 ft | 3 kts | 245° |
| 2026-05-08 21:39 | 35.76630 | 140.38232 | 150 ft | 0 kts | 258° |
| 2026-05-08 21:41 | 35.76627 | 140.38216 | 150 ft | 9 kts | 257° |
| 2026-05-08 21:41 | 35.76634 | 140.38074 | 150 ft | 22 kts | 289° |
| 2026-05-08 21:41 | 35.76627 | 140.37904 | 150 ft | 16 kts | 242° |
| 2026-05-08 21:42 | 35.76567 | 140.37772 | 150 ft | 18 kts | 250° |
| 2026-05-08 21:42 | 35.76634 | 140.37667 | 150 ft | 18 kts | 329° |
| 2026-05-08 21:42 | 35.76750 | 140.37583 | 150 ft | 21 kts | 330° |
| 2026-05-08 21:42 | 35.76885 | 140.37487 | 150 ft | 24 kts | 330° |
| 2026-05-08 21:43 | 35.77033 | 140.37380 | 149 ft | 26 kts | 329° |
| 2026-05-08 21:43 | 35.77194 | 140.37265 | 149 ft | 28 kts | 329° |
| 2026-05-08 21:43 | 35.77364 | 140.37141 | 149 ft | 29 kts | 329° |
| 2026-05-08 21:43 | 35.77493 | 140.37019 | 150 ft | 16 kts | 285° |
| 2026-05-08 21:44 | 35.77464 | 140.36910 | 150 ft | 15 kts | 243° |
| 2026-05-08 21:44 | 35.77381 | 140.36873 | 149 ft | 15 kts | 155° |
| 2026-05-08 21:44 | 35.77261 | 140.36958 | 148 ft | 38 kts | 149° |
| 2026-05-08 21:44 | 35.76801 | 140.37290 | 151 ft | 113 kts | 150° |
| 2026-05-08 21:45 | 35.75939 | 140.37912 | 166 ft | 172 kts | 149° |
| 2026-05-08 21:45 | 35.74886 | 140.38676 | 846 ft | 173 kts | 150° |
| 2026-05-08 21:45 | 35.73790 | 140.39489 | 1392 ft | 194 kts | 152° |
| 2026-05-08 21:45 | 35.72564 | 140.40391 | 1794 ft | 218 kts | 153° |
| 2026-05-08 21:46 | 35.71156 | 140.41389 | 2161 ft | 248 kts | 152° |
| 2026-05-08 21:46 | 35.69567 | 140.42524 | 2549 ft | 277 kts | 152° |
| 2026-05-08 21:46 | 35.67878 | 140.43737 | 3387 ft | 284 kts | 152° |
| 2026-05-08 21:46 | 35.66153 | 140.44979 | 4258 ft | 290 kts | 153° |
| 2026-05-08 21:47 | 35.64406 | 140.46235 | 5189 ft | 291 kts | 153° |
| 2026-05-08 21:47 | 35.62657 | 140.47492 | 6236 ft | 290 kts | 154° |
| 2026-05-08 21:47 | 35.61037 | 140.48657 | 7196 ft | 289 kts | 154° |
| 2026-05-08 21:47 | 35.59292 | 140.49909 | 8175 ft | 292 kts | 155° |
| 2026-05-08 21:48 | 35.57524 | 140.51177 | 9150 ft | 296 kts | 155° |
| 2026-05-08 21:48 | 35.55736 | 140.52463 | 10101 ft | 300 kts | 156° |
| 2026-05-08 21:48 | 35.53877 | 140.53788 | 10623 ft | 321 kts | 157° |
| 2026-05-08 21:48 | 35.51875 | 140.55209 | 11006 ft | 344 kts | 157° |
| 2026-05-08 21:49 | 35.49743 | 140.56729 | 11442 ft | 363 kts | 157° |
| 2026-05-08 21:49 | 35.47531 | 140.58317 | 12134 ft | 372 kts | 158° |
| 2026-05-08 21:49 | 35.45285 | 140.59937 | 12968 ft | 378 kts | 158° |
| 2026-05-08 21:49 | 35.43107 | 140.61841 | 13763 ft | 394 kts | 147° |
| 2026-05-08 21:50 | 35.41271 | 140.64439 | 14468 ft | 410 kts | 134° |
| 2026-05-08 21:50 | 35.39648 | 140.67335 | 15286 ft | 414 kts | 132° |
| 2026-05-08 21:50 | 35.38040 | 140.70279 | 16053 ft | 417 kts | 132° |
| 2026-05-08 21:50 | 35.36414 | 140.73240 | 16796 ft | 421 kts | 133° |
| 2026-05-08 21:51 | 35.34787 | 140.76185 | 17540 ft | 425 kts | 133° |
| 2026-05-08 21:51 | 35.33118 | 140.79191 | 18266 ft | 428 kts | 133° |
| 2026-05-08 21:51 | 35.31428 | 140.82226 | 18866 ft | 434 kts | 134° |
| 2026-05-08 21:51 | 35.29714 | 140.85297 | 19407 ft | 440 kts | 134° |
| 2026-05-08 21:52 | 35.27977 | 140.88406 | 19992 ft | 445 kts | 134° |
| 2026-05-08 21:52 | 35.26219 | 140.91550 | 20584 ft | 450 kts | 134° |
| 2026-05-08 21:52 | 35.24430 | 140.94721 | 21150 ft | 454 kts | 135° |
| 2026-05-08 21:52 | 35.22405 | 140.97643 | 21716 ft | 445 kts | 147° |
| 2026-05-08 21:53 | 35.20011 | 140.99946 | 22288 ft | 432 kts | 160° |
| 2026-05-08 21:53 | 35.17362 | 141.01530 | 22828 ft | 417 kts | 172° |
| 2026-05-08 21:53 | 35.14608 | 141.02388 | 23484 ft | 402 kts | 184° |
| 2026-05-08 21:53 | 35.11849 | 141.02718 | 24038 ft | 397 kts | 188° |
| 2026-05-08 21:54 | 35.09090 | 141.02920 | 24620 ft | 398 kts | 188° |
| 2026-05-08 21:54 | 35.06317 | 141.03115 | 25235 ft | 400 kts | 188° |
| 2026-05-08 21:54 | 35.03538 | 141.03318 | 25839 ft | 401 kts | 188° |
| 2026-05-08 21:54 | 35.00745 | 141.03529 | 26430 ft | 403 kts | 188° |
| 2026-05-08 21:55 | 34.97935 | 141.03744 | 26988 ft | 405 kts | 188° |
| 2026-05-08 21:55 | 34.95122 | 141.03963 | 27607 ft | 406 kts | 188° |
| 2026-05-08 21:55 | 34.92299 | 141.04182 | 28185 ft | 408 kts | 188° |
| 2026-05-08 21:56 | 34.86606 | 141.04625 | 29292 ft | 412 kts | 188° |
| 2026-05-08 21:56 | 34.83736 | 141.04849 | 29836 ft | 414 kts | 188° |
| 2026-05-08 21:56 | 34.80858 | 141.05074 | 30290 ft | 416 kts | 188° |
| 2026-05-08 21:56 | 34.77965 | 141.05301 | 30704 ft | 417 kts | 188° |
| 2026-05-08 21:57 | 34.75062 | 141.05535 | 31172 ft | 418 kts | 188° |
| 2026-05-08 21:57 | 34.72155 | 141.05759 | 31591 ft | 419 kts | 188° |
| 2026-05-08 21:57 | 34.69236 | 141.05983 | 31986 ft | 421 kts | 188° |
| 2026-05-08 21:57 | 34.66304 | 141.06209 | 32368 ft | 423 kts | 187° |
| 2026-05-08 21:58 | 34.64357 | 141.06359 | 32610 ft | 424 kts | 187° |
| 2026-05-08 21:58 | 34.61433 | 141.06404 | 32970 ft | 415 kts | 194° |
| 2026-05-08 21:58 | 34.58654 | 141.05813 | 33447 ft | 399 kts | 204° |
| 2026-05-08 21:58 | 34.56117 | 141.04573 | 33874 ft | 389 kts | 213° |
| 2026-05-08 21:59 | 34.53898 | 141.02754 | 34259 ft | 383 kts | 223° |
| 2026-05-08 21:59 | 34.51940 | 141.00575 | 34609 ft | 382 kts | 226° |
| 2026-05-08 21:59 | 34.50034 | 140.98325 | 34952 ft | 382 kts | 226° |
| 2026-05-08 21:59 | 34.48133 | 140.96076 | 35307 ft | 382 kts | 226° |
| 2026-05-08 22:00 | 34.46228 | 140.93832 | 35629 ft | 382 kts | 226° |
| 2026-05-08 22:00 | 34.44324 | 140.91596 | 35979 ft | 381 kts | 226° |
| 2026-05-08 22:00 | 34.42414 | 140.89361 | 36297 ft | 381 kts | 226° |
| 2026-05-08 22:00 | 34.40506 | 140.87129 | 36620 ft | 382 kts | 226° |
| 2026-05-08 22:01 | 34.38595 | 140.84899 | 36916 ft | 382 kts | 227° |
| 2026-05-08 22:01 | 34.36681 | 140.82666 | 37205 ft | 382 kts | 227° |
| 2026-05-08 22:01 | 34.34765 | 140.80440 | 37492 ft | 382 kts | 227° |
| 2026-05-08 22:01 | 34.32849 | 140.78213 | 37801 ft | 382 kts | 227° |
| 2026-05-08 22:02 | 34.30932 | 140.75986 | 38099 ft | 381 kts | 227° |
| 2026-05-08 22:02 | 34.29021 | 140.73767 | 38390 ft | 381 kts | 227° |
| 2026-05-08 22:02 | 34.27107 | 140.71547 | 38640 ft | 381 kts | 227° |
| 2026-05-08 22:02 | 34.25193 | 140.69328 | 38850 ft | 381 kts | 227° |
| 2026-05-08 22:03 | 34.23275 | 140.67107 | 39013 ft | 382 kts | 227° |
| 2026-05-08 22:03 | 34.21355 | 140.64885 | 39190 ft | 382 kts | 227° |
| 2026-05-08 22:03 | 34.19430 | 140.62657 | 39340 ft | 384 kts | 227° |
| 2026-05-08 22:03 | 34.17498 | 140.60424 | 39494 ft | 385 kts | 227° |
| 2026-05-08 22:04 | 34.15562 | 140.58187 | 39684 ft | 385 kts | 227° |
| 2026-05-08 22:04 | 34.13624 | 140.55951 | 39847 ft | 386 kts | 227° |
| 2026-05-08 22:04 | 34.11682 | 140.53710 | 39902 ft | 387 kts | 227° |
| 2026-05-08 22:05 | 34.07797 | 140.49233 | 39917 ft | 386 kts | 227° |
| 2026-05-08 22:05 | 34.03911 | 140.44761 | 39917 ft | 386 kts | 227° |
| 2026-05-08 22:06 | 34.00046 | 140.40320 | 39923 ft | 386 kts | 227° |
| 2026-05-08 22:06 | 33.96149 | 140.35847 | 39931 ft | 387 kts | 227° |
| 2026-05-08 22:07 | 33.92249 | 140.31376 | 39935 ft | 387 kts | 227° |
| 2026-05-08 22:07 | 33.88345 | 140.26907 | 39936 ft | 387 kts | 227° |
| 2026-05-08 22:08 | 33.84335 | 140.22569 | 39941 ft | 390 kts | 222° |
| 2026-05-08 22:08 | 33.79635 | 140.19181 | 39933 ft | 397 kts | 214° |
| 2026-05-08 22:09 | 33.74669 | 140.16205 | 39949 ft | 400 kts | 213° |
| 2026-05-08 22:09 | 33.69665 | 140.13280 | 39954 ft | 400 kts | 213° |
| 2026-05-08 22:10 | 33.64674 | 140.10337 | 39957 ft | 400 kts | 213° |
| 2026-05-08 22:10 | 33.59690 | 140.07377 | 39948 ft | 400 kts | 213° |
| 2026-05-08 22:11 | 33.54703 | 140.04410 | 39968 ft | 400 kts | 213° |
| 2026-05-08 22:11 | 33.49709 | 140.01443 | 39976 ft | 400 kts | 213° |
| 2026-05-08 22:12 | 33.44719 | 139.98485 | 39973 ft | 400 kts | 213° |
| 2026-05-08 22:12 | 33.39720 | 139.95525 | 39991 ft | 402 kts | 213° |
| 2026-05-08 22:13 | 33.34702 | 139.92557 | 39943 ft | 403 kts | 213° |
| 2026-05-08 22:13 | 33.29661 | 139.89580 | 39989 ft | 405 kts | 213° |
| 2026-05-08 22:14 | 33.24605 | 139.86599 | 39997 ft | 405 kts | 213° |
| 2026-05-08 22:14 | 33.19551 | 139.83618 | 39999 ft | 404 kts | 213° |
| 2026-05-08 22:15 | 33.14909 | 139.79977 | 40005 ft | 396 kts | 225° |
| 2026-05-08 22:15 | 33.11247 | 139.75172 | 40017 ft | 391 kts | 237° |
| 2026-05-08 22:16 | 33.08805 | 139.69400 | 40016 ft | 392 kts | 249° |
| 2026-05-08 22:16 | 33.07055 | 139.63226 | 40015 ft | 394 kts | 250° |
| 2026-05-08 22:17 | 33.05393 | 139.57000 | 40017 ft | 394 kts | 250° |
| 2026-05-08 22:17 | 33.03709 | 139.50783 | 40019 ft | 394 kts | 250° |
| 2026-05-08 22:18 | 33.01997 | 139.44569 | 40023 ft | 395 kts | 250° |
| 2026-05-08 22:18 | 33.00285 | 139.38402 | 40024 ft | 395 kts | 250° |
| 2026-05-08 22:19 | 32.98556 | 139.32189 | 40029 ft | 395 kts | 250° |
| 2026-05-08 22:19 | 32.96814 | 139.25940 | 40032 ft | 395 kts | 250° |
| 2026-05-08 22:20 | 32.95081 | 139.19734 | 40028 ft | 395 kts | 250° |
| 2026-05-08 22:20 | 32.93357 | 139.13573 | 40029 ft | 395 kts | 250° |
| 2026-05-08 22:21 | 32.91618 | 139.07369 | 40035 ft | 395 kts | 250° |
| 2026-05-08 22:21 | 32.89873 | 139.01160 | 40033 ft | 396 kts | 250° |
| 2026-05-08 22:22 | 32.88126 | 138.94955 | 40038 ft | 396 kts | 250° |
| 2026-05-08 22:22 | 32.86374 | 138.88748 | 40037 ft | 396 kts | 250° |
| 2026-05-08 22:23 | 32.84618 | 138.82540 | 40037 ft | 396 kts | 250° |
| 2026-05-08 22:23 | 32.82856 | 138.76325 | 40040 ft | 397 kts | 250° |
| 2026-05-08 22:24 | 32.81092 | 138.70113 | 40044 ft | 397 kts | 250° |
| 2026-05-08 22:24 | 32.79323 | 138.63899 | 40039 ft | 397 kts | 250° |
| 2026-05-08 22:25 | 32.77548 | 138.57679 | 40044 ft | 398 kts | 250° |
| 2026-05-08 22:25 | 32.75773 | 138.51457 | 40046 ft | 398 kts | 250° |
| 2026-05-08 22:26 | 32.73994 | 138.45237 | 40051 ft | 398 kts | 250° |
| 2026-05-08 22:26 | 32.72210 | 138.39012 | 40055 ft | 399 kts | 250° |
| 2026-05-08 22:27 | 32.70420 | 138.32780 | 40055 ft | 399 kts | 250° |
| 2026-05-08 22:27 | 32.68626 | 138.26550 | 40056 ft | 399 kts | 250° |
| 2026-05-08 22:28 | 32.66828 | 138.20318 | 40069 ft | 399 kts | 250° |
| 2026-05-08 22:28 | 32.65039 | 138.14133 | 40052 ft | 399 kts | 250° |
| 2026-05-08 22:29 | 32.63234 | 138.07903 | 40055 ft | 399 kts | 250° |
| 2026-05-08 22:29 | 32.61427 | 138.01679 | 40058 ft | 399 kts | 250° |
| 2026-05-08 22:30 | 32.59617 | 137.95460 | 40064 ft | 398 kts | 251° |
| 2026-05-08 22:30 | 32.57806 | 137.89250 | 40060 ft | 398 kts | 251° |
| 2026-05-08 22:31 | 32.55995 | 137.83049 | 40062 ft | 398 kts | 251° |
| 2026-05-08 22:31 | 32.54177 | 137.76841 | 40059 ft | 398 kts | 251° |
| 2026-05-08 22:32 | 32.52359 | 137.70644 | 40065 ft | 398 kts | 251° |
| 2026-05-08 22:32 | 32.50537 | 137.64448 | 40066 ft | 398 kts | 251° |
| 2026-05-08 22:33 | 32.48712 | 137.58255 | 40048 ft | 398 kts | 251° |
| 2026-05-08 22:33 | 32.46884 | 137.52064 | 40060 ft | 398 kts | 251° |
| 2026-05-08 22:34 | 32.45053 | 137.45874 | 40062 ft | 398 kts | 251° |
| 2026-05-08 22:34 | 32.43218 | 137.39684 | 40061 ft | 398 kts | 251° |
| 2026-05-08 22:35 | 32.41381 | 137.33499 | 40062 ft | 398 kts | 251° |
| 2026-05-08 22:35 | 32.39545 | 137.27332 | 40063 ft | 397 kts | 251° |
| 2026-05-08 22:36 | 32.37707 | 137.21169 | 40066 ft | 397 kts | 251° |
| 2026-05-08 22:36 | 32.35865 | 137.15006 | 40068 ft | 397 kts | 251° |
| 2026-05-08 22:37 | 32.34020 | 137.08845 | 40067 ft | 397 kts | 251° |
| 2026-05-08 22:37 | 32.32172 | 137.02688 | 40066 ft | 397 kts | 251° |
| 2026-05-08 22:38 | 32.30320 | 136.96529 | 40083 ft | 397 kts | 251° |
| 2026-05-08 22:38 | 32.28466 | 136.90380 | 40067 ft | 397 kts | 251° |
| 2026-05-08 22:39 | 32.26612 | 136.84237 | 40069 ft | 397 kts | 251° |
| 2026-05-08 22:39 | 32.24752 | 136.78089 | 40071 ft | 397 kts | 251° |
| 2026-05-08 22:40 | 32.22889 | 136.71945 | 40081 ft | 397 kts | 251° |
| 2026-05-08 22:40 | 32.21023 | 136.65802 | 40080 ft | 398 kts | 251° |
| 2026-05-08 22:41 | 32.19153 | 136.59656 | 40081 ft | 398 kts | 251° |
| 2026-05-08 22:41 | 32.17279 | 136.53512 | 40089 ft | 398 kts | 251° |
| 2026-05-08 22:42 | 32.15403 | 136.47375 | 40092 ft | 397 kts | 251° |
| 2026-05-08 22:42 | 32.13844 | 136.42282 | 40089 ft | 397 kts | 251° |
| 2026-05-08 22:43 | 32.11967 | 136.36162 | 40075 ft | 397 kts | 252° |
| 2026-05-08 22:43 | 32.10086 | 136.30039 | 40084 ft | 397 kts | 252° |
| 2026-05-08 22:44 | 32.08200 | 136.23914 | 40094 ft | 397 kts | 251° |
| 2026-05-08 22:44 | 32.06311 | 136.17792 | 40087 ft | 397 kts | 251° |
| 2026-05-08 22:45 | 32.04419 | 136.11670 | 40092 ft | 398 kts | 251° |
| 2026-05-08 22:45 | 32.02520 | 136.05538 | 40092 ft | 398 kts | 251° |
| 2026-05-08 22:46 | 32.00618 | 135.99410 | 40098 ft | 398 kts | 251° |
| 2026-05-08 22:46 | 31.98712 | 135.93283 | 40097 ft | 398 kts | 252° |
| 2026-05-08 22:47 | 31.96805 | 135.87161 | 40096 ft | 398 kts | 252° |
| 2026-05-08 22:47 | 31.94897 | 135.81048 | 40098 ft | 398 kts | 252° |
| 2026-05-08 22:48 | 31.92984 | 135.74935 | 40098 ft | 398 kts | 252° |
| 2026-05-08 22:48 | 31.91068 | 135.68818 | 40100 ft | 398 kts | 252° |
| 2026-05-08 22:49 | 31.89150 | 135.62711 | 40098 ft | 398 kts | 252° |
| 2026-05-08 22:49 | 31.86281 | 135.53595 | 40096 ft | 398 kts | 252° |
| 2026-05-08 22:50 | 31.84355 | 135.47491 | 40099 ft | 398 kts | 252° |
| 2026-05-08 22:50 | 31.82426 | 135.41388 | 40100 ft | 398 kts | 252° |
| 2026-05-08 22:51 | 31.80493 | 135.35285 | 40096 ft | 399 kts | 252° |
| 2026-05-08 22:51 | 31.78554 | 135.29177 | 40094 ft | 399 kts | 252° |
| 2026-05-08 22:52 | 31.76612 | 135.23068 | 40094 ft | 399 kts | 251° |
| 2026-05-08 22:52 | 31.74667 | 135.16961 | 40094 ft | 399 kts | 251° |
| 2026-05-08 22:53 | 31.72717 | 135.10861 | 40100 ft | 399 kts | 251° |
| 2026-05-08 22:53 | 31.70196 | 135.05028 | 40098 ft | 403 kts | 243° |
| 2026-05-08 22:54 | 31.67180 | 134.99470 | 40102 ft | 404 kts | 241° |
| 2026-05-08 22:54 | 31.64070 | 134.93951 | 40098 ft | 406 kts | 241° |
| 2026-05-08 22:55 | 31.60950 | 134.88427 | 40103 ft | 406 kts | 241° |
| 2026-05-08 22:55 | 31.57835 | 134.82893 | 40077 ft | 406 kts | 241° |
| 2026-05-08 22:56 | 31.54725 | 134.77359 | 40100 ft | 407 kts | 241° |
| 2026-05-08 22:56 | 31.51610 | 134.71821 | 40096 ft | 407 kts | 241° |
| 2026-05-08 22:57 | 31.48490 | 134.66283 | 40099 ft | 407 kts | 241° |
| 2026-05-08 22:57 | 31.45369 | 134.60755 | 40105 ft | 407 kts | 241° |
| 2026-05-08 22:58 | 31.42242 | 134.55221 | 40100 ft | 407 kts | 241° |
| 2026-05-08 22:58 | 31.39114 | 134.49695 | 40099 ft | 407 kts | 241° |
| 2026-05-08 22:59 | 31.35982 | 134.44169 | 40106 ft | 407 kts | 241° |
| 2026-05-08 22:59 | 31.32848 | 134.38648 | 40108 ft | 407 kts | 241° |
| 2026-05-08 23:00 | 31.29711 | 134.33129 | 40110 ft | 407 kts | 241° |
| 2026-05-08 23:00 | 31.26574 | 134.27618 | 40110 ft | 407 kts | 241° |
| 2026-05-08 23:01 | 31.23433 | 134.22108 | 40103 ft | 407 kts | 241° |
| 2026-05-08 23:01 | 31.20287 | 134.16598 | 40108 ft | 407 kts | 241° |
| 2026-05-08 23:02 | 31.17144 | 134.11098 | 40108 ft | 407 kts | 241° |
| 2026-05-08 23:02 | 31.13994 | 134.05596 | 40108 ft | 407 kts | 241° |
| 2026-05-08 23:03 | 31.10843 | 134.00099 | 40111 ft | 408 kts | 241° |
| 2026-05-08 23:03 | 31.07688 | 133.94602 | 40112 ft | 408 kts | 241° |
| 2026-05-08 23:04 | 31.04532 | 133.89114 | 40111 ft | 408 kts | 241° |
| 2026-05-08 23:04 | 31.01374 | 133.83626 | 40110 ft | 408 kts | 241° |
| 2026-05-08 23:05 | 30.98232 | 133.78178 | 40112 ft | 407 kts | 241° |
| 2026-05-08 23:05 | 30.95071 | 133.72701 | 40117 ft | 407 kts | 241° |
| 2026-05-08 23:06 | 30.91905 | 133.67224 | 40114 ft | 407 kts | 241° |
| 2026-05-08 23:06 | 30.88735 | 133.61757 | 40097 ft | 407 kts | 241° |
| 2026-05-08 23:07 | 30.85565 | 133.56281 | 40113 ft | 408 kts | 241° |
| 2026-05-08 23:07 | 30.82393 | 133.50807 | 40115 ft | 408 kts | 241° |
| 2026-05-08 23:08 | 30.79213 | 133.45331 | 40115 ft | 408 kts | 241° |
| 2026-05-08 23:08 | 30.76033 | 133.39864 | 40112 ft | 408 kts | 241° |
| 2026-05-08 23:09 | 30.72846 | 133.34393 | 40117 ft | 409 kts | 241° |
| 2026-05-08 23:09 | 30.69654 | 133.28921 | 40120 ft | 409 kts | 241° |
| 2026-05-08 23:10 | 30.66460 | 133.23454 | 40126 ft | 409 kts | 241° |
| 2026-05-08 23:10 | 30.63261 | 133.17985 | 40107 ft | 410 kts | 241° |
| 2026-05-08 23:11 | 30.60057 | 133.12515 | 40107 ft | 410 kts | 241° |
| 2026-05-08 23:11 | 30.56869 | 133.07080 | 40115 ft | 410 kts | 241° |
| 2026-05-08 23:12 | 30.53658 | 133.01613 | 40126 ft | 410 kts | 241° |
| 2026-05-08 23:12 | 30.50447 | 132.96154 | 40117 ft | 409 kts | 241° |
| 2026-05-08 23:13 | 30.47237 | 132.90705 | 40117 ft | 409 kts | 241° |
| 2026-05-08 23:13 | 30.44025 | 132.85259 | 40120 ft | 409 kts | 241° |
| 2026-05-08 23:14 | 30.40813 | 132.79819 | 40087 ft | 409 kts | 241° |
| 2026-05-08 23:14 | 30.37591 | 132.74370 | 40119 ft | 411 kts | 241° |
| 2026-05-08 23:15 | 30.34360 | 132.68913 | 40121 ft | 411 kts | 241° |
| 2026-05-08 23:15 | 30.31126 | 132.63461 | 40123 ft | 411 kts | 241° |
| 2026-05-08 23:16 | 30.27889 | 132.58010 | 40106 ft | 411 kts | 241° |
| 2026-05-08 23:16 | 30.24648 | 132.52558 | 40122 ft | 411 kts | 241° |
| 2026-05-08 23:17 | 30.21403 | 132.47108 | 40118 ft | 412 kts | 241° |
| 2026-05-08 23:17 | 30.18153 | 132.41658 | 40118 ft | 412 kts | 241° |
| 2026-05-08 23:18 | 30.14905 | 132.36219 | 40105 ft | 411 kts | 241° |
| 2026-05-08 23:18 | 30.11648 | 132.30770 | 40121 ft | 412 kts | 241° |
| 2026-05-08 23:19 | 30.08388 | 132.25324 | 40122 ft | 412 kts | 241° |
| 2026-05-08 23:19 | 30.05126 | 132.19883 | 40117 ft | 412 kts | 241° |
| 2026-05-08 23:20 | 30.01866 | 132.14453 | 40112 ft | 412 kts | 241° |
| 2026-05-08 23:20 | 29.98601 | 132.09020 | 40119 ft | 412 kts | 241° |
| 2026-05-08 23:21 | 29.95354 | 132.03625 | 40121 ft | 412 kts | 241° |
| 2026-05-08 23:21 | 29.92084 | 131.98198 | 40137 ft | 412 kts | 241° |
| 2026-05-08 23:22 | 29.88815 | 131.92783 | 40113 ft | 412 kts | 241° |
| 2026-05-08 23:22 | 29.85541 | 131.87365 | 40119 ft | 412 kts | 241° |
| 2026-05-08 23:23 | 29.82247 | 131.81959 | 40118 ft | 414 kts | 239° |
| 2026-05-08 23:23 | 29.78595 | 131.76801 | 40130 ft | 416 kts | 237° |
| 2026-05-08 23:24 | 29.74847 | 131.71715 | 40113 ft | 418 kts | 236° |
| 2026-05-08 23:24 | 29.71069 | 131.66628 | 40119 ft | 418 kts | 236° |
| 2026-05-08 23:25 | 29.67290 | 131.61538 | 40111 ft | 418 kts | 236° |
| 2026-05-08 23:25 | 29.63513 | 131.56448 | 40116 ft | 418 kts | 236° |
| 2026-05-08 23:26 | 29.59735 | 131.51358 | 40109 ft | 419 kts | 236° |
| 2026-05-08 23:26 | 29.55944 | 131.46258 | 40110 ft | 420 kts | 236° |
| 2026-05-08 23:27 | 29.52148 | 131.41158 | 40116 ft | 420 kts | 236° |
| 2026-05-08 23:27 | 29.48352 | 131.36065 | 40078 ft | 420 kts | 236° |
| 2026-05-08 23:28 | 29.44542 | 131.30957 | 40114 ft | 422 kts | 237° |
| 2026-05-08 23:28 | 29.41365 | 131.26704 | 40113 ft | 423 kts | 236° |
| 2026-05-08 23:29 | 29.37537 | 131.21587 | 40113 ft | 423 kts | 236° |
| 2026-05-08 23:29 | 29.33707 | 131.16474 | 40091 ft | 423 kts | 237° |
| 2026-05-08 23:30 | 29.29869 | 131.11355 | 40122 ft | 424 kts | 237° |
| 2026-05-08 23:30 | 29.26029 | 131.06241 | 40115 ft | 423 kts | 237° |
| 2026-05-08 23:31 | 29.22190 | 131.01135 | 40116 ft | 423 kts | 236° |
| 2026-05-08 23:31 | 29.18353 | 130.96035 | 40118 ft | 423 kts | 236° |
| 2026-05-08 23:32 | 29.14510 | 130.90936 | 40126 ft | 423 kts | 236° |
| 2026-05-08 23:32 | 29.10674 | 130.85852 | 40118 ft | 422 kts | 236° |
| 2026-05-08 23:33 | 29.06839 | 130.80777 | 40121 ft | 421 kts | 236° |
| 2026-05-08 23:33 | 29.03004 | 130.75706 | 40115 ft | 422 kts | 237° |
| 2026-05-08 23:34 | 28.99158 | 130.70626 | 40121 ft | 423 kts | 236° |
| 2026-05-08 23:34 | 28.95302 | 130.65540 | 40118 ft | 424 kts | 236° |
| 2026-05-08 23:35 | 28.91469 | 130.60492 | 40117 ft | 424 kts | 236° |
| 2026-05-08 23:35 | 28.87606 | 130.55412 | 40112 ft | 424 kts | 236° |
| 2026-05-08 23:36 | 28.83731 | 130.50319 | 40116 ft | 425 kts | 236° |
| 2026-05-08 23:36 | 28.79851 | 130.45229 | 40118 ft | 425 kts | 236° |
| 2026-05-08 23:37 | 28.75972 | 130.40146 | 40119 ft | 425 kts | 236° |
| 2026-05-08 23:37 | 28.72092 | 130.35066 | 40109 ft | 426 kts | 236° |
| 2026-05-08 23:38 | 28.68199 | 130.29975 | 40111 ft | 426 kts | 236° |
| 2026-05-08 23:38 | 28.64300 | 130.24884 | 40123 ft | 427 kts | 236° |
| 2026-05-08 23:39 | 28.60398 | 130.19796 | 40113 ft | 426 kts | 236° |
| 2026-05-08 23:39 | 28.56495 | 130.14712 | 40114 ft | 427 kts | 236° |
| 2026-05-08 23:40 | 28.52585 | 130.09625 | 40109 ft | 427 kts | 236° |
| 2026-05-08 23:40 | 28.48669 | 130.04536 | 40106 ft | 427 kts | 236° |
| 2026-05-08 23:41 | 28.44754 | 129.99457 | 40108 ft | 427 kts | 236° |
| 2026-05-08 23:41 | 28.40831 | 129.94370 | 40098 ft | 429 kts | 236° |
| 2026-05-08 23:42 | 28.36895 | 129.89274 | 40102 ft | 429 kts | 236° |
| 2026-05-08 23:42 | 28.32955 | 129.84180 | 40103 ft | 429 kts | 236° |
| 2026-05-08 23:43 | 28.29012 | 129.79089 | 40109 ft | 429 kts | 236° |
| 2026-05-08 23:43 | 28.25069 | 129.74003 | 40107 ft | 430 kts | 236° |
| 2026-05-08 23:44 | 28.21118 | 129.68911 | 40105 ft | 430 kts | 236° |
| 2026-05-08 23:44 | 28.17158 | 129.63816 | 40112 ft | 430 kts | 236° |
| 2026-05-08 23:45 | 28.13198 | 129.58727 | 40116 ft | 430 kts | 236° |
| 2026-05-08 23:45 | 28.09240 | 129.53647 | 40112 ft | 430 kts | 236° |
| 2026-05-08 23:46 | 28.05275 | 129.48563 | 40124 ft | 430 kts | 236° |
| 2026-05-08 23:46 | 28.01308 | 129.43484 | 40115 ft | 430 kts | 236° |
| 2026-05-08 23:47 | 27.97342 | 129.38411 | 40120 ft | 431 kts | 235° |
| 2026-05-08 23:47 | 27.93369 | 129.33335 | 40125 ft | 431 kts | 235° |
| 2026-05-08 23:48 | 27.89393 | 129.28263 | 40134 ft | 431 kts | 235° |
| 2026-05-08 23:48 | 27.85444 | 129.23231 | 40134 ft | 431 kts | 235° |
| 2026-05-08 23:49 | 27.81467 | 129.18169 | 40135 ft | 431 kts | 235° |
| 2026-05-08 23:49 | 27.77486 | 129.13108 | 40125 ft | 432 kts | 235° |
| 2026-05-08 23:50 | 27.73485 | 129.08029 | 40132 ft | 433 kts | 235° |
| 2026-05-08 23:50 | 27.69485 | 129.02960 | 40132 ft | 432 kts | 235° |
| 2026-05-08 23:51 | 27.65485 | 128.97896 | 40132 ft | 432 kts | 235° |
| 2026-05-08 23:51 | 27.61484 | 128.92837 | 40135 ft | 432 kts | 235° |
| 2026-05-08 23:52 | 27.57477 | 128.87776 | 40122 ft | 433 kts | 235° |
| 2026-05-08 23:52 | 27.53470 | 128.82722 | 40110 ft | 432 kts | 235° |
| 2026-05-08 23:53 | 27.49466 | 128.77679 | 40102 ft | 432 kts | 235° |
| 2026-05-08 23:53 | 27.45462 | 128.72639 | 40098 ft | 432 kts | 235° |
| 2026-05-08 23:54 | 27.41931 | 128.67254 | 40136 ft | 425 kts | 244° |
| 2026-05-08 23:55 | 27.37371 | 128.58725 | 40131 ft | 423 kts | 245° |
| 2026-05-08 23:55 | 27.34390 | 128.53013 | 40131 ft | 423 kts | 245° |
| 2026-05-08 23:56 | 27.31396 | 128.47306 | 40116 ft | 424 kts | 245° |
| 2026-05-08 23:56 | 27.28382 | 128.41587 | 40070 ft | 424 kts | 245° |
| 2026-05-08 23:56 | 27.26882 | 128.38754 | 39632 ft | 420 kts | 245° |
| 2026-05-08 23:57 | 27.25390 | 128.35940 | 39044 ft | 419 kts | 245° |
| 2026-05-08 23:57 | 27.23896 | 128.33117 | 38274 ft | 421 kts | 245° |
| 2026-05-08 23:57 | 27.22402 | 128.30289 | 37576 ft | 421 kts | 245° |
| 2026-05-08 23:57 | 27.20904 | 128.27457 | 36891 ft | 422 kts | 244° |
| 2026-05-08 23:58 | 27.19403 | 128.24619 | 36187 ft | 424 kts | 244° |
| 2026-05-08 23:58 | 27.17893 | 128.21771 | 35467 ft | 425 kts | 243° |
| 2026-05-08 23:58 | 27.16373 | 128.18906 | 34660 ft | 429 kts | 243° |
| 2026-05-08 23:58 | 27.14841 | 128.16020 | 33773 ft | 433 kts | 243° |
| 2026-05-08 23:59 | 27.13291 | 128.13104 | 32836 ft | 436 kts | 242° |
| 2026-05-08 23:59 | 27.11730 | 128.10169 | 31933 ft | 439 kts | 242° |
| 2026-05-08 23:59 | 27.10154 | 128.07217 | 30969 ft | 443 kts | 242° |
| 2026-05-08 23:59 | 27.08566 | 128.04236 | 29929 ft | 448 kts | 241° |
| 2026-05-09 00:00 | 27.06960 | 128.01224 | 28943 ft | 449 kts | 241° |
| 2026-05-09 00:00 | 27.05365 | 127.98239 | 28222 ft | 444 kts | 241° |
| 2026-05-09 00:00 | 27.03685 | 127.95353 | 27511 ft | 442 kts | 235° |
| 2026-05-09 00:00 | 27.01535 | 127.92886 | 26740 ft | 445 kts | 222° |
| 2026-05-09 00:01 | 26.98868 | 127.91093 | 25995 ft | 452 kts | 208° |
| 2026-05-09 00:01 | 26.95817 | 127.90123 | 25234 ft | 462 kts | 193° |
| 2026-05-09 00:01 | 26.92578 | 127.90092 | 24459 ft | 473 kts | 179° |
| 2026-05-09 00:01 | 26.89308 | 127.90489 | 23623 ft | 471 kts | 182° |
| 2026-05-09 00:02 | 26.86102 | 127.90678 | 22725 ft | 451 kts | 184° |
| 2026-05-09 00:02 | 26.82973 | 127.90799 | 21944 ft | 449 kts | 184° |
| 2026-05-09 00:02 | 26.79905 | 127.90899 | 21168 ft | 446 kts | 184° |
| 2026-05-09 00:02 | 26.76809 | 127.90995 | 20378 ft | 443 kts | 184° |
| 2026-05-09 00:03 | 26.74128 | 127.91077 | 19683 ft | 441 kts | 184° |
| 2026-05-09 00:03 | 26.71082 | 127.91168 | 18888 ft | 439 kts | 183° |
| 2026-05-09 00:03 | 26.68031 | 127.91259 | 18101 ft | 435 kts | 183° |
| 2026-05-09 00:03 | 26.65040 | 127.91350 | 17212 ft | 421 kts | 183° |
| 2026-05-09 00:04 | 26.62182 | 127.91441 | 16347 ft | 402 kts | 182° |
| 2026-05-09 00:04 | 26.59438 | 127.91522 | 15521 ft | 390 kts | 182° |
| 2026-05-09 00:04 | 26.56717 | 127.91598 | 14750 ft | 392 kts | 182° |
| 2026-05-09 00:04 | 26.53983 | 127.91675 | 13956 ft | 394 kts | 182° |
| 2026-05-09 00:05 | 26.51249 | 127.91754 | 13107 ft | 392 kts | 181° |
| 2026-05-09 00:05 | 26.48532 | 127.91835 | 12308 ft | 389 kts | 181° |
| 2026-05-09 00:05 | 26.45839 | 127.91916 | 11590 ft | 381 kts | 181° |
| 2026-05-09 00:05 | 26.43260 | 127.91996 | 11163 ft | 361 kts | 181° |
| 2026-05-09 00:06 | 26.40808 | 127.92045 | 11029 ft | 346 kts | 184° |
| 2026-05-09 00:06 | 26.38452 | 127.91617 | 11010 ft | 341 kts | 200° |
| 2026-05-09 00:06 | 26.36297 | 127.90651 | 10747 ft | 323 kts | 206° |
| 2026-05-09 00:06 | 26.34291 | 127.89620 | 9992 ft | 314 kts | 207° |
| 2026-05-09 00:07 | 26.32357 | 127.88611 | 9538 ft | 296 kts | 207° |
| 2026-05-09 00:07 | 26.30552 | 127.87676 | 9093 ft | 277 kts | 206° |
| 2026-05-09 00:07 | 26.28829 | 127.86787 | 8746 ft | 272 kts | 206° |
| 2026-05-09 00:07 | 26.27127 | 127.85912 | 8442 ft | 266 kts | 206° |
| 2026-05-09 00:08 | 26.25464 | 127.85059 | 8131 ft | 261 kts | 206° |
| 2026-05-09 00:08 | 26.23824 | 127.84220 | 7755 ft | 259 kts | 206° |
| 2026-05-09 00:08 | 26.22189 | 127.83384 | 7372 ft | 258 kts | 206° |
| 2026-05-09 00:08 | 26.20562 | 127.82554 | 6993 ft | 256 kts | 206° |
| 2026-05-09 00:09 | 26.18964 | 127.81739 | 6780 ft | 247 kts | 205° |
| 2026-05-09 00:09 | 26.17437 | 127.80961 | 6532 ft | 235 kts | 205° |
| 2026-05-09 00:09 | 26.15966 | 127.80210 | 6002 ft | 230 kts | 205° |
| 2026-05-09 00:09 | 26.14502 | 127.79463 | 5605 ft | 232 kts | 204° |
| 2026-05-09 00:10 | 26.13037 | 127.78717 | 5253 ft | 231 kts | 203° |
| 2026-05-09 00:10 | 26.11568 | 127.77975 | 4899 ft | 234 kts | 200° |
| 2026-05-09 00:10 | 26.10125 | 127.77248 | 4784 ft | 221 kts | 202° |
| 2026-05-09 00:10 | 26.08776 | 127.76552 | 4708 ft | 206 kts | 202° |
| 2026-05-09 00:11 | 26.07500 | 127.75883 | 4407 ft | 204 kts | 201° |
| 2026-05-09 00:11 | 26.06267 | 127.75038 | 3853 ft | 216 kts | 213° |
| 2026-05-09 00:11 | 26.05332 | 127.73696 | 3443 ft | 224 kts | 240° |
| 2026-05-09 00:11 | 26.04966 | 127.72030 | 3221 ft | 218 kts | 265° |
| 2026-05-09 00:12 | 26.04889 | 127.70377 | 2986 ft | 211 kts | 270° |
| 2026-05-09 00:12 | 26.04849 | 127.68760 | 2730 ft | 208 kts | 273° |
| 2026-05-09 00:12 | 26.05010 | 127.67185 | 2419 ft | 202 kts | 294° |
| 2026-05-09 00:12 | 26.05787 | 127.66048 | 2205 ft | 174 kts | 335° |
| 2026-05-09 00:13 | 26.06826 | 127.65484 | 2119 ft | 164 kts | 348° |
| 2026-05-09 00:13 | 26.07874 | 127.65101 | 2035 ft | 147 kts | 352° |
| 2026-05-09 00:13 | 26.08816 | 127.65011 | 1893 ft | 129 kts | 6° |
| 2026-05-09 00:13 | 26.09685 | 127.64965 | 1722 ft | 121 kts | 4° |
| 2026-05-09 00:14 | 26.10231 | 127.64937 | 1627 ft | 117 kts | 5° |
| 2026-05-09 00:14 | 26.11031 | 127.64903 | 1453 ft | 114 kts | 5° |
| 2026-05-09 00:14 | 26.12074 | 127.64857 | 1262 ft | 111 kts | 5° |
| 2026-05-09 00:14 | 26.12594 | 127.64835 | 1159 ft | 110 kts | 5° |
| 2026-05-09 00:15 | 26.13353 | 127.64802 | 1014 ft | 108 kts | 5° |
| 2026-05-09 00:15 | 26.14110 | 127.64770 | 874 ft | 112 kts | 6° |
| 2026-05-09 00:15 | 26.14912 | 127.64737 | 719 ft | 117 kts | 3° |
| 2026-05-09 00:15 | 26.15730 | 127.64700 | 573 ft | 119 kts | 5° |
| 2026-05-09 00:16 | 26.16555 | 127.64664 | 407 ft | 118 kts | 4° |
| 2026-05-09 00:16 | 26.17372 | 127.64649 | 233 ft | 117 kts | 6° |
| 2026-05-09 00:16 | 26.18188 | 127.64652 | 97 ft | 118 kts | 2° |
| 2026-05-09 00:16 | 26.19014 | 127.64609 | 31 ft | 116 kts | 3° |
| 2026-05-09 00:17 | 26.19715 | 127.64581 | 23 ft | 71 kts | 357° |
| 2026-05-09 00:17 | 26.20016 | 127.64568 | 24 ft | 34 kts | 358° |
| 2026-05-09 00:17 | 26.20228 | 127.64592 | 27 ft | 28 kts | 18° |
| 2026-05-09 00:17 | 26.20391 | 127.64678 | 26 ft | 25 kts | 28° |
| 2026-05-09 00:18 | 26.20544 | 127.64747 | 26 ft | 23 kts | 3° |
| 2026-05-09 00:18 | 26.20698 | 127.64743 | 25 ft | 22 kts | 358° |
| 2026-05-09 00:18 | 26.20847 | 127.64737 | 25 ft | 18 kts | 5° |
| 2026-05-09 00:18 | 26.20912 | 127.64808 | 28 ft | 12 kts | 71° |
| 2026-05-09 00:19 | 26.20898 | 127.64881 | 26 ft | 9 kts | 142° |
| 2026-05-09 00:19 | 26.20853 | 127.64906 | 27 ft | 2 kts | 155° |
| 2026-05-09 00:19 | 26.20842 | 127.64912 | 28 ft | 1 kts | 154° |
| 2026-05-09 00:19 | 26.20841 | 127.64912 | 28 ft | 0 kts | 154° |